sensor_id;sensor_type;location;lat;lon;timestamp;P1;durP1;ratioP1;P2;durP2;ratioP2
28926;SDS011;16038;47.692;9.400;2023-12-20T00:02:07;9.30;;;4.60;;
28926;SDS011;16038;47.692;9.400;2023-12-20T00:04:33;7.55;;;3.97;;
28926;SDS011;16038;47.692;9.400;2023-12-20T00:06:58;5.82;;;3.88;;
28926;SDS011;16038;47.692;9.400;2023-12-20T00:09:23;7.32;;;4.10;;
28926;SDS011;16038;47.692;9.400;2023-12-20T00:11:49;5.53;;;3.63;;
28926;SDS011;16038;47.692;9.400;2023-12-20T00:14:15;7.97;;;3.92;;
28926;SDS011;16038;47.692;9.400;2023-12-20T00:16:41;7.70;;;4.18;;
28926;SDS011;16038;47.692;9.400;2023-12-20T00:19:06;6.20;;;4.00;;
28926;SDS011;16038;47.692;9.400;2023-12-20T00:21:32;6.60;;;4.45;;
28926;SDS011;16038;47.692;9.400;2023-12-20T00:23:58;9.30;;;4.53;;
28926;SDS011;16038;47.692;9.400;2023-12-20T00:26:23;6.40;;;4.40;;
28926;SDS011;16038;47.692;9.400;2023-12-20T00:28:48;7.65;;;4.00;;
28926;SDS011;16038;47.692;9.400;2023-12-20T00:31:14;6.93;;;4.22;;
28926;SDS011;16038;47.692;9.400;2023-12-20T00:33:39;7.35;;;4.57;;
28926;SDS011;16038;47.692;9.400;2023-12-20T00:36:08;6.93;;;4.13;;
28926;SDS011;16038;47.692;9.400;2023-12-20T00:38:34;7.20;;;4.72;;
28926;SDS011;16038;47.692;9.400;2023-12-20T00:40:59;7.88;;;4.65;;
28926;SDS011;16038;47.692;9.400;2023-12-20T00:43:24;9.00;;;5.65;;
28926;SDS011;16038;47.692;9.400;2023-12-20T00:45:50;7.63;;;4.65;;
28926;SDS011;16038;47.692;9.400;2023-12-20T00:48:15;6.75;;;4.03;;
28926;SDS011;16038;47.692;9.400;2023-12-20T00:50:41;7.30;;;4.68;;
28926;SDS011;16038;47.692;9.400;2023-12-20T00:53:06;7.05;;;4.32;;
28926;SDS011;16038;47.692;9.400;2023-12-20T00:55:32;7.70;;;4.55;;
28926;SDS011;16038;47.692;9.400;2023-12-20T00:57:57;8.52;;;4.90;;
28926;SDS011;16038;47.692;9.400;2023-12-20T01:00:24;7.00;;;4.45;;
28926;SDS011;16038;47.692;9.400;2023-12-20T01:02:49;6.95;;;4.65;;
28926;SDS011;16038;47.692;9.400;2023-12-20T01:05:16;6.30;;;4.25;;
28926;SDS011;16038;47.692;9.400;2023-12-20T01:07:43;7.05;;;4.60;;
28926;SDS011;16038;47.692;9.400;2023-12-20T01:10:08;6.72;;;4.30;;
28926;SDS011;16038;47.692;9.400;2023-12-20T01:12:35;7.85;;;5.20;;
28926;SDS011;16038;47.692;9.400;2023-12-20T01:15:01;8.52;;;5.07;;
28926;SDS011;16038;47.692;9.400;2023-12-20T01:17:26;7.32;;;4.85;;
28926;SDS011;16038;47.692;9.400;2023-12-20T01:19:51;7.72;;;4.82;;
28926;SDS011;16038;47.692;9.400;2023-12-20T01:22:17;8.18;;;5.50;;
28926;SDS011;16038;47.692;9.400;2023-12-20T01:24:42;7.00;;;4.15;;
28926;SDS011;16038;47.692;9.400;2023-12-20T01:27:08;7.30;;;5.13;;
28926;SDS011;16038;47.692;9.400;2023-12-20T01:29:33;7.97;;;4.93;;
28926;SDS011;16038;47.692;9.400;2023-12-20T01:31:59;8.38;;;5.00;;
28926;SDS011;16038;47.692;9.400;2023-12-20T01:34:24;6.93;;;5.03;;
28926;SDS011;16038;47.692;9.400;2023-12-20T01:36:49;8.38;;;4.90;;
28926;SDS011;16038;47.692;9.400;2023-12-20T01:39:15;7.18;;;4.78;;
28926;SDS011;16038;47.692;9.400;2023-12-20T01:41:40;8.02;;;4.85;;
28926;SDS011;16038;47.692;9.400;2023-12-20T01:44:06;7.93;;;4.82;;
28926;SDS011;16038;47.692;9.400;2023-12-20T01:46:31;6.35;;;4.40;;
28926;SDS011;16038;47.692;9.400;2023-12-20T01:48:56;7.88;;;5.03;;
28926;SDS011;16038;47.692;9.400;2023-12-20T01:51:22;8.05;;;4.82;;
28926;SDS011;16038;47.692;9.400;2023-12-20T01:53:48;8.43;;;4.97;;
28926;SDS011;16038;47.692;9.400;2023-12-20T01:56:14;7.00;;;4.45;;
28926;SDS011;16038;47.692;9.400;2023-12-20T01:58:44;9.30;;;5.13;;
28926;SDS011;16038;47.692;9.400;2023-12-20T02:01:11;21.70;;;11.90;;
28926;SDS011;16038;47.692;9.400;2023-12-20T02:03:37;8.75;;;5.47;;
28926;SDS011;16038;47.692;9.400;2023-12-20T02:06:03;10.68;;;5.05;;
28926;SDS011;16038;47.692;9.400;2023-12-20T02:08:30;8.07;;;5.43;;
28926;SDS011;16038;47.692;9.400;2023-12-20T02:10:55;8.45;;;5.05;;
28926;SDS011;16038;47.692;9.400;2023-12-20T02:13:21;8.48;;;5.43;;
28926;SDS011;16038;47.692;9.400;2023-12-20T02:15:46;7.32;;;4.72;;
28926;SDS011;16038;47.692;9.400;2023-12-20T02:18:12;7.82;;;5.00;;
28926;SDS011;16038;47.692;9.400;2023-12-20T02:20:40;11.27;;;5.85;;
28926;SDS011;16038;47.692;9.400;2023-12-20T02:23:06;8.32;;;4.80;;
28926;SDS011;16038;47.692;9.400;2023-12-20T02:25:31;9.95;;;5.40;;
28926;SDS011;16038;47.692;9.400;2023-12-20T02:27:56;8.20;;;5.03;;
28926;SDS011;16038;47.692;9.400;2023-12-20T02:30:22;8.88;;;5.78;;
28926;SDS011;16038;47.692;9.400;2023-12-20T02:32:48;9.27;;;5.55;;
28926;SDS011;16038;47.692;9.400;2023-12-20T02:35:14;7.45;;;5.03;;
28926;SDS011;16038;47.692;9.400;2023-12-20T02:37:40;9.30;;;5.18;;
28926;SDS011;16038;47.692;9.400;2023-12-20T02:40:05;9.82;;;5.47;;
28926;SDS011;16038;47.692;9.400;2023-12-20T02:42:31;8.45;;;4.90;;
28926;SDS011;16038;47.692;9.400;2023-12-20T02:44:57;8.43;;;5.20;;
28926;SDS011;16038;47.692;9.400;2023-12-20T02:47:22;8.23;;;5.20;;
28926;SDS011;16038;47.692;9.400;2023-12-20T02:49:48;10.32;;;5.40;;
28926;SDS011;16038;47.692;9.400;2023-12-20T02:52:14;8.32;;;5.50;;
28926;SDS011;16038;47.692;9.400;2023-12-20T02:54:40;9.88;;;5.85;;
28926;SDS011;16038;47.692;9.400;2023-12-20T02:57:06;11.32;;;6.03;;
28926;SDS011;16038;47.692;9.400;2023-12-20T02:59:31;10.85;;;5.80;;
28926;SDS011;16038;47.692;9.400;2023-12-20T03:01:57;9.30;;;5.80;;
28926;SDS011;16038;47.692;9.400;2023-12-20T03:04:22;10.55;;;6.30;;
28926;SDS011;16038;47.692;9.400;2023-12-20T03:06:48;10.90;;;5.80;;
28926;SDS011;16038;47.692;9.400;2023-12-20T03:09:13;10.10;;;6.25;;
28926;SDS011;16038;47.692;9.400;2023-12-20T03:11:39;10.07;;;6.22;;
28926;SDS011;16038;47.692;9.400;2023-12-20T03:14:04;10.57;;;6.07;;
28926;SDS011;16038;47.692;9.400;2023-12-20T03:16:29;11.23;;;6.82;;
28926;SDS011;16038;47.692;9.400;2023-12-20T03:18:56;11.65;;;6.60;;
28926;SDS011;16038;47.692;9.400;2023-12-20T03:21:21;10.90;;;7.00;;
28926;SDS011;16038;47.692;9.400;2023-12-20T03:23:47;11.23;;;6.70;;
28926;SDS011;16038;47.692;9.400;2023-12-20T03:26:12;11.63;;;6.45;;
28926;SDS011;16038;47.692;9.400;2023-12-20T03:28:38;10.85;;;6.50;;
28926;SDS011;16038;47.692;9.400;2023-12-20T03:31:04;12.07;;;6.93;;
28926;SDS011;16038;47.692;9.400;2023-12-20T03:33:29;11.90;;;7.03;;
28926;SDS011;16038;47.692;9.400;2023-12-20T03:35:55;10.10;;;5.90;;
28926;SDS011;16038;47.692;9.400;2023-12-20T03:38:20;10.45;;;6.35;;
28926;SDS011;16038;47.692;9.400;2023-12-20T03:40:46;13.18;;;8.07;;
28926;SDS011;16038;47.692;9.400;2023-12-20T03:43:12;13.70;;;6.82;;
28926;SDS011;16038;47.692;9.400;2023-12-20T03:45:37;10.55;;;6.82;;
28926;SDS011;16038;47.692;9.400;2023-12-20T03:48:03;11.65;;;6.60;;
28926;SDS011;16038;47.692;9.400;2023-12-20T03:50:29;10.20;;;6.28;;
28926;SDS011;16038;47.692;9.400;2023-12-20T03:52:54;11.80;;;6.20;;
28926;SDS011;16038;47.692;9.400;2023-12-20T03:55:19;10.23;;;5.97;;
28926;SDS011;16038;47.692;9.400;2023-12-20T03:57:45;13.75;;;6.72;;
28926;SDS011;16038;47.692;9.400;2023-12-20T04:00:10;12.20;;;6.63;;
28926;SDS011;16038;47.692;9.400;2023-12-20T04:02:40;11.82;;;6.90;;
28926;SDS011;16038;47.692;9.400;2023-12-20T04:05:06;12.73;;;7.93;;
28926;SDS011;16038;47.692;9.400;2023-12-20T04:07:32;11.23;;;7.07;;
28926;SDS011;16038;47.692;9.400;2023-12-20T04:09:58;12.57;;;7.70;;
28926;SDS011;16038;47.692;9.400;2023-12-20T04:12:24;14.38;;;8.45;;
28926;SDS011;16038;47.692;9.400;2023-12-20T04:14:49;14.23;;;7.95;;
28926;SDS011;16038;47.692;9.400;2023-12-20T04:17:17;13.18;;;9.40;;
28926;SDS011;16038;47.692;9.400;2023-12-20T04:19:42;13.45;;;8.45;;
28926;SDS011;16038;47.692;9.400;2023-12-20T04:22:08;16.85;;;9.85;;
28926;SDS011;16038;47.692;9.400;2023-12-20T04:24:33;15.32;;;9.15;;
28926;SDS011;16038;47.692;9.400;2023-12-20T04:26:59;15.38;;;9.55;;
28926;SDS011;16038;47.692;9.400;2023-12-20T04:29:24;14.50;;;9.20;;
28926;SDS011;16038;47.692;9.400;2023-12-20T04:31:50;16.65;;;10.55;;
28926;SDS011;16038;47.692;9.400;2023-12-20T04:34:16;16.20;;;9.30;;
28926;SDS011;16038;47.692;9.400;2023-12-20T04:36:42;16.55;;;9.98;;
28926;SDS011;16038;47.692;9.400;2023-12-20T04:39:08;15.50;;;9.63;;
28926;SDS011;16038;47.692;9.400;2023-12-20T04:41:33;18.38;;;10.05;;
28926;SDS011;16038;47.692;9.400;2023-12-20T04:43:58;17.17;;;9.40;;
28926;SDS011;16038;47.692;9.400;2023-12-20T04:46:24;18.25;;;10.30;;
28926;SDS011;16038;47.692;9.400;2023-12-20T04:48:49;15.90;;;10.57;;
28926;SDS011;16038;47.692;9.400;2023-12-20T04:51:15;18.75;;;10.13;;
28926;SDS011;16038;47.692;9.400;2023-12-20T04:53:40;15.98;;;10.18;;
28926;SDS011;16038;47.692;9.400;2023-12-20T04:56:05;16.80;;;10.65;;
28926;SDS011;16038;47.692;9.400;2023-12-20T04:58:31;18.90;;;11.32;;
28926;SDS011;16038;47.692;9.400;2023-12-20T05:00:56;20.95;;;10.55;;
28926;SDS011;16038;47.692;9.400;2023-12-20T05:03:22;17.58;;;10.90;;
28926;SDS011;16038;47.692;9.400;2023-12-20T05:05:47;19.08;;;10.73;;
28926;SDS011;16038;47.692;9.400;2023-12-20T05:08:13;17.00;;;9.93;;
28926;SDS011;16038;47.692;9.400;2023-12-20T05:10:38;17.13;;;10.07;;
28926;SDS011;16038;47.692;9.400;2023-12-20T05:13:05;17.30;;;10.93;;
28926;SDS011;16038;47.692;9.400;2023-12-20T05:15:31;16.00;;;10.15;;
28926;SDS011;16038;47.692;9.400;2023-12-20T05:17:56;16.30;;;9.35;;
28926;SDS011;16038;47.692;9.400;2023-12-20T05:20:21;14.80;;;10.45;;
28926;SDS011;16038;47.692;9.400;2023-12-20T05:22:48;15.60;;;10.00;;
28926;SDS011;16038;47.692;9.400;2023-12-20T05:25:13;16.02;;;9.93;;
28926;SDS011;16038;47.692;9.400;2023-12-20T05:27:38;17.70;;;9.63;;
28926;SDS011;16038;47.692;9.400;2023-12-20T05:30:04;14.95;;;9.20;;
28926;SDS011;16038;47.692;9.400;2023-12-20T05:32:30;15.05;;;9.20;;
28926;SDS011;16038;47.692;9.400;2023-12-20T05:34:56;14.25;;;8.50;;
28926;SDS011;16038;47.692;9.400;2023-12-20T05:37:21;16.52;;;10.25;;
28926;SDS011;16038;47.692;9.400;2023-12-20T05:39:47;15.90;;;9.32;;
28926;SDS011;16038;47.692;9.400;2023-12-20T05:42:12;13.68;;;9.20;;
28926;SDS011;16038;47.692;9.400;2023-12-20T05:44:37;16.42;;;9.80;;
28926;SDS011;16038;47.692;9.400;2023-12-20T05:47:03;12.88;;;8.98;;
28926;SDS011;16038;47.692;9.400;2023-12-20T05:49:28;15.52;;;9.20;;
28926;SDS011;16038;47.692;9.400;2023-12-20T05:51:54;13.30;;;8.50;;
28926;SDS011;16038;47.692;9.400;2023-12-20T05:54:19;14.40;;;9.65;;
28926;SDS011;16038;47.692;9.400;2023-12-20T05:56:44;15.30;;;9.85;;
28926;SDS011;16038;47.692;9.400;2023-12-20T05:59:10;13.63;;;9.10;;
28926;SDS011;16038;47.692;9.400;2023-12-20T06:01:35;13.98;;;8.55;;
28926;SDS011;16038;47.692;9.400;2023-12-20T06:04:00;13.07;;;8.73;;
28926;SDS011;16038;47.692;9.400;2023-12-20T06:06:26;11.32;;;8.13;;
28926;SDS011;16038;47.692;9.400;2023-12-20T06:08:51;14.95;;;9.10;;
28926;SDS011;16038;47.692;9.400;2023-12-20T06:11:17;10.40;;;7.70;;
28926;SDS011;16038;47.692;9.400;2023-12-20T06:13:42;14.15;;;7.50;;
28926;SDS011;16038;47.692;9.400;2023-12-20T06:16:07;12.48;;;7.88;;
28926;SDS011;16038;47.692;9.400;2023-12-20T06:18:33;11.32;;;7.20;;
28926;SDS011;16038;47.692;9.400;2023-12-20T06:20:58;13.02;;;7.68;;
28926;SDS011;16038;47.692;9.400;2023-12-20T06:23:24;9.90;;;7.10;;
28926;SDS011;16038;47.692;9.400;2023-12-20T06:25:49;11.50;;;7.53;;
28926;SDS011;16038;47.692;9.400;2023-12-20T06:28:15;10.75;;;7.32;;
28926;SDS011;16038;47.692;9.400;2023-12-20T06:30:40;9.68;;;6.80;;
28926;SDS011;16038;47.692;9.400;2023-12-20T06:33:06;9.35;;;6.65;;
28926;SDS011;16038;47.692;9.400;2023-12-20T06:35:32;10.88;;;6.68;;
28926;SDS011;16038;47.692;9.400;2023-12-20T06:37:57;10.10;;;7.22;;
28926;SDS011;16038;47.692;9.400;2023-12-20T06:40:23;9.90;;;6.25;;
28926;SDS011;16038;47.692;9.400;2023-12-20T06:42:48;12.40;;;6.70;;
28926;SDS011;16038;47.692;9.400;2023-12-20T06:45:14;9.80;;;6.65;;
28926;SDS011;16038;47.692;9.400;2023-12-20T06:47:39;9.27;;;6.00;;
28926;SDS011;16038;47.692;9.400;2023-12-20T06:50:05;10.70;;;6.63;;
28926;SDS011;16038;47.692;9.400;2023-12-20T06:52:30;13.13;;;6.93;;
28926;SDS011;16038;47.692;9.400;2023-12-20T06:54:56;11.23;;;6.40;;
28926;SDS011;16038;47.692;9.400;2023-12-20T06:57:21;9.48;;;6.07;;
28926;SDS011;16038;47.692;9.400;2023-12-20T06:59:47;9.63;;;6.72;;
28926;SDS011;16038;47.692;9.400;2023-12-20T07:02:12;10.70;;;7.07;;
28926;SDS011;16038;47.692;9.400;2023-12-20T07:04:41;11.57;;;6.97;;
28926;SDS011;16038;47.692;9.400;2023-12-20T07:07:06;10.18;;;6.50;;
28926;SDS011;16038;47.692;9.400;2023-12-20T07:09:32;12.82;;;7.72;;
28926;SDS011;16038;47.692;9.400;2023-12-20T07:11:58;10.20;;;7.07;;
28926;SDS011;16038;47.692;9.400;2023-12-20T07:14:23;14.15;;;7.93;;
28926;SDS011;16038;47.692;9.400;2023-12-20T07:16:49;11.30;;;7.38;;
28926;SDS011;16038;47.692;9.400;2023-12-20T07:19:14;13.45;;;7.95;;
28926;SDS011;16038;47.692;9.400;2023-12-20T07:21:39;10.73;;;7.60;;
28926;SDS011;16038;47.692;9.400;2023-12-20T07:24:05;13.40;;;8.85;;
28926;SDS011;16038;47.692;9.400;2023-12-20T07:26:30;15.50;;;8.85;;
28926;SDS011;16038;47.692;9.400;2023-12-20T07:28:55;11.35;;;8.40;;
28926;SDS011;16038;47.692;9.400;2023-12-20T07:31:21;13.63;;;8.25;;
28926;SDS011;16038;47.692;9.400;2023-12-20T07:33:46;35.50;;;20.33;;
28926;SDS011;16038;47.692;9.400;2023-12-20T07:36:12;15.77;;;9.57;;
28926;SDS011;16038;47.692;9.400;2023-12-20T07:38:37;17.20;;;11.38;;
28926;SDS011;16038;47.692;9.400;2023-12-20T07:41:03;15.65;;;9.18;;
28926;SDS011;16038;47.692;9.400;2023-12-20T07:43:28;12.60;;;8.85;;
28926;SDS011;16038;47.692;9.400;2023-12-20T07:45:54;15.50;;;9.25;;
28926;SDS011;16038;47.692;9.400;2023-12-20T07:48:19;15.23;;;10.35;;
28926;SDS011;16038;47.692;9.400;2023-12-20T07:50:44;16.05;;;9.52;;
28926;SDS011;16038;47.692;9.400;2023-12-20T07:53:10;15.73;;;9.95;;
28926;SDS011;16038;47.692;9.400;2023-12-20T07:55:35;18.52;;;10.30;;
28926;SDS011;16038;47.692;9.400;2023-12-20T07:58:01;14.45;;;9.85;;
28926;SDS011;16038;47.692;9.400;2023-12-20T08:00:27;16.33;;;10.60;;
28926;SDS011;16038;47.692;9.400;2023-12-20T08:02:52;16.58;;;10.27;;
28926;SDS011;16038;47.692;9.400;2023-12-20T08:05:18;17.27;;;10.95;;
28926;SDS011;16038;47.692;9.400;2023-12-20T08:07:43;16.48;;;10.38;;
28926;SDS011;16038;47.692;9.400;2023-12-20T08:10:09;16.83;;;10.70;;
28926;SDS011;16038;47.692;9.400;2023-12-20T08:12:34;16.17;;;10.48;;
28926;SDS011;16038;47.692;9.400;2023-12-20T08:15:00;14.60;;;10.30;;
28926;SDS011;16038;47.692;9.400;2023-12-20T08:17:26;15.95;;;10.52;;
28926;SDS011;16038;47.692;9.400;2023-12-20T08:19:51;18.45;;;11.25;;
28926;SDS011;16038;47.692;9.400;2023-12-20T08:22:17;14.75;;;10.23;;
28926;SDS011;16038;47.692;9.400;2023-12-20T08:24:42;17.10;;;10.88;;
28926;SDS011;16038;47.692;9.400;2023-12-20T08:27:08;16.10;;;10.60;;
28926;SDS011;16038;47.692;9.400;2023-12-20T08:29:34;17.67;;;10.80;;
28926;SDS011;16038;47.692;9.400;2023-12-20T08:32:00;16.77;;;11.10;;
28926;SDS011;16038;47.692;9.400;2023-12-20T08:34:26;15.75;;;10.90;;
28926;SDS011;16038;47.692;9.400;2023-12-20T08:36:51;16.52;;;10.35;;
28926;SDS011;16038;47.692;9.400;2023-12-20T08:39:17;15.32;;;10.40;;
28926;SDS011;16038;47.692;9.400;2023-12-20T08:41:42;15.75;;;10.23;;
28926;SDS011;16038;47.692;9.400;2023-12-20T08:44:08;13.95;;;10.13;;
28926;SDS011;16038;47.692;9.400;2023-12-20T08:46:34;16.25;;;10.18;;
28926;SDS011;16038;47.692;9.400;2023-12-20T08:49:00;17.08;;;10.43;;
28926;SDS011;16038;47.692;9.400;2023-12-20T08:51:26;18.55;;;11.48;;
28926;SDS011;16038;47.692;9.400;2023-12-20T08:53:52;17.60;;;10.98;;
28926;SDS011;16038;47.692;9.400;2023-12-20T08:56:17;16.02;;;10.70;;
28926;SDS011;16038;47.692;9.400;2023-12-20T08:58:43;16.60;;;11.10;;
28926;SDS011;16038;47.692;9.400;2023-12-20T09:01:09;16.42;;;10.38;;
28926;SDS011;16038;47.692;9.400;2023-12-20T09:03:35;15.25;;;10.70;;
28926;SDS011;16038;47.692;9.400;2023-12-20T09:06:00;16.27;;;10.10;;
28926;SDS011;16038;47.692;9.400;2023-12-20T09:08:26;14.90;;;10.68;;
28926;SDS011;16038;47.692;9.400;2023-12-20T09:10:51;13.82;;;9.32;;
28926;SDS011;16038;47.692;9.400;2023-12-20T09:13:17;12.38;;;8.48;;
28926;SDS011;16038;47.692;9.400;2023-12-20T09:15:42;12.63;;;8.73;;
28926;SDS011;16038;47.692;9.400;2023-12-20T09:18:08;14.82;;;9.45;;
28926;SDS011;16038;47.692;9.400;2023-12-20T09:20:33;12.95;;;8.55;;
28926;SDS011;16038;47.692;9.400;2023-12-20T09:22:59;13.60;;;9.27;;
28926;SDS011;16038;47.692;9.400;2023-12-20T09:25:25;12.35;;;8.90;;
28926;SDS011;16038;47.692;9.400;2023-12-20T09:27:51;11.48;;;8.20;;
28926;SDS011;16038;47.692;9.400;2023-12-20T09:30:17;14.13;;;8.20;;
28926;SDS011;16038;47.692;9.400;2023-12-20T09:32:43;11.55;;;8.10;;
28926;SDS011;16038;47.692;9.400;2023-12-20T09:35:10;12.85;;;9.23;;
28926;SDS011;16038;47.692;9.400;2023-12-20T09:37:35;12.23;;;8.48;;
28926;SDS011;16038;47.692;9.400;2023-12-20T09:40:00;10.50;;;8.82;;
28926;SDS011;16038;47.692;9.400;2023-12-20T09:45:15;11.35;;;7.60;;
28926;SDS011;16038;47.692;9.400;2023-12-20T09:47:45;21.20;;;13.00;;
28926;SDS011;16038;47.692;9.400;2023-12-20T09:50:11;17.10;;;9.93;;
28926;SDS011;16038;47.692;9.400;2023-12-20T09:52:37;9.73;;;6.88;;
28926;SDS011;16038;47.692;9.400;2023-12-20T09:55:05;10.23;;;7.28;;
28926;SDS011;16038;47.692;9.400;2023-12-20T09:57:32;10.93;;;7.40;;
28926;SDS011;16038;47.692;9.400;2023-12-20T09:59:58;10.15;;;6.68;;
28926;SDS011;16038;47.692;9.400;2023-12-20T10:02:24;9.27;;;6.78;;
28926;SDS011;16038;47.692;9.400;2023-12-20T10:04:54;9.65;;;6.57;;
28926;SDS011;16038;47.692;9.400;2023-12-20T10:07:20;12.05;;;7.50;;
28926;SDS011;16038;47.692;9.400;2023-12-20T10:09:47;10.55;;;6.43;;
28926;SDS011;16038;47.692;9.400;2023-12-20T10:12:13;8.93;;;6.78;;
28926;SDS011;16038;47.692;9.400;2023-12-20T10:14:39;9.02;;;6.68;;
28926;SDS011;16038;47.692;9.400;2023-12-20T10:17:04;10.35;;;6.95;;
28926;SDS011;16038;47.692;9.400;2023-12-20T10:19:31;9.82;;;6.78;;
28926;SDS011;16038;47.692;9.400;2023-12-20T10:22:00;7.55;;;5.82;;
28926;SDS011;16038;47.692;9.400;2023-12-20T10:24:29;6.72;;;5.68;;
28926;SDS011;16038;47.692;9.400;2023-12-20T10:27:04;7.82;;;5.63;;
28926;SDS011;16038;47.692;9.400;2023-12-20T10:29:39;6.60;;;4.80;;
28926;SDS011;16038;47.692;9.400;2023-12-20T10:34:53;7.80;;;5.43;;
28926;SDS011;16038;47.692;9.400;2023-12-20T10:37:20;8.35;;;4.80;;
28926;SDS011;16038;47.692;9.400;2023-12-20T10:39:49;8.57;;;5.10;;
28926;SDS011;16038;47.692;9.400;2023-12-20T10:42:17;5.05;;;4.13;;
28926;SDS011;16038;47.692;9.400;2023-12-20T10:44:46;5.13;;;3.35;;
28926;SDS011;16038;47.692;9.400;2023-12-20T10:47:12;4.80;;;3.20;;
28926;SDS011;16038;47.692;9.400;2023-12-20T10:49:38;3.38;;;2.42;;
28926;SDS011;16038;47.692;9.400;2023-12-20T10:52:05;3.85;;;2.55;;
28926;SDS011;16038;47.692;9.400;2023-12-20T10:54:32;3.10;;;2.22;;
28926;SDS011;16038;47.692;9.400;2023-12-20T10:56:58;3.58;;;2.30;;
28926;SDS011;16038;47.692;9.400;2023-12-20T10:59:24;3.08;;;2.30;;
28926;SDS011;16038;47.692;9.400;2023-12-20T11:01:50;3.33;;;2.40;;
28926;SDS011;16038;47.692;9.400;2023-12-20T11:04:18;5.55;;;2.97;;
28926;SDS011;16038;47.692;9.400;2023-12-20T11:09:38;3.40;;;2.80;;
28926;SDS011;16038;47.692;9.400;2023-12-20T11:14:58;3.53;;;2.47;;
28926;SDS011;16038;47.692;9.400;2023-12-20T11:17:29;3.70;;;2.47;;
28926;SDS011;16038;47.692;9.400;2023-12-20T11:22:27;3.30;;;1.98;;
28926;SDS011;16038;47.692;9.400;2023-12-20T11:24:57;3.97;;;2.28;;
28926;SDS011;16038;47.692;9.400;2023-12-20T11:27:27;2.67;;;2.00;;
28926;SDS011;16038;47.692;9.400;2023-12-20T11:29:53;3.50;;;2.28;;
28926;SDS011;16038;47.692;9.400;2023-12-20T11:34:59;4.18;;;1.85;;
28926;SDS011;16038;47.692;9.400;2023-12-20T11:37:29;3.03;;;1.95;;
28926;SDS011;16038;47.692;9.400;2023-12-20T11:40:02;2.63;;;2.03;;
28926;SDS011;16038;47.692;9.400;2023-12-20T11:42:39;2.97;;;2.47;;
28926;SDS011;16038;47.692;9.400;2023-12-20T11:45:16;3.65;;;2.10;;
28926;SDS011;16038;47.692;9.400;2023-12-20T11:47:47;2.60;;;1.88;;
28926;SDS011;16038;47.692;9.400;2023-12-20T11:50:18;3.28;;;2.03;;
28926;SDS011;16038;47.692;9.400;2023-12-20T11:52:44;2.95;;;2.28;;
28926;SDS011;16038;47.692;9.400;2023-12-20T11:55:09;3.70;;;2.22;;
28926;SDS011;16038;47.692;9.400;2023-12-20T11:57:35;2.97;;;2.10;;
28926;SDS011;16038;47.692;9.400;2023-12-20T12:00:01;2.67;;;1.90;;
28926;SDS011;16038;47.692;9.400;2023-12-20T12:02:28;2.88;;;2.00;;
28926;SDS011;16038;47.692;9.400;2023-12-20T12:04:53;2.40;;;1.90;;
28926;SDS011;16038;47.692;9.400;2023-12-20T12:07:20;2.70;;;2.03;;
28926;SDS011;16038;47.692;9.400;2023-12-20T12:09:45;2.80;;;2.30;;
28926;SDS011;16038;47.692;9.400;2023-12-20T12:12:11;2.95;;;2.10;;
28926;SDS011;16038;47.692;9.400;2023-12-20T12:14:37;3.20;;;2.10;;
28926;SDS011;16038;47.692;9.400;2023-12-20T12:17:03;3.45;;;2.85;;
28926;SDS011;16038;47.692;9.400;2023-12-20T12:19:30;4.03;;;2.80;;
28926;SDS011;16038;47.692;9.400;2023-12-20T12:22:07;4.30;;;2.90;;
28926;SDS011;16038;47.692;9.400;2023-12-20T12:24:39;4.07;;;3.03;;
28926;SDS011;16038;47.692;9.400;2023-12-20T12:27:08;3.22;;;2.60;;
28926;SDS011;16038;47.692;9.400;2023-12-20T12:29:36;3.63;;;2.30;;
28926;SDS011;16038;47.692;9.400;2023-12-20T12:32:06;3.55;;;2.20;;
28926;SDS011;16038;47.692;9.400;2023-12-20T12:36:57;3.45;;;2.30;;
28926;SDS011;16038;47.692;9.400;2023-12-20T12:39:23;3.42;;;2.10;;
28926;SDS011;16038;47.692;9.400;2023-12-20T12:41:52;7.03;;;2.17;;
28926;SDS011;16038;47.692;9.400;2023-12-20T12:44:18;4.03;;;1.98;;
28926;SDS011;16038;47.692;9.400;2023-12-20T12:46:45;2.58;;;1.88;;
28926;SDS011;16038;47.692;9.400;2023-12-20T12:49:11;4.32;;;1.85;;
28926;SDS011;16038;47.692;9.400;2023-12-20T12:51:36;2.50;;;1.80;;
28926;SDS011;16038;47.692;9.400;2023-12-20T12:54:02;3.85;;;2.90;;
28926;SDS011;16038;47.692;9.400;2023-12-20T12:56:28;10.35;;;2.72;;
28926;SDS011;16038;47.692;9.400;2023-12-20T12:58:54;4.22;;;1.90;;
28926;SDS011;16038;47.692;9.400;2023-12-20T13:01:19;2.92;;;1.83;;
28926;SDS011;16038;47.692;9.400;2023-12-20T13:03:45;3.13;;;1.50;;
28926;SDS011;16038;47.692;9.400;2023-12-20T13:06:10;1.73;;;1.10;;
28926;SDS011;16038;47.692;9.400;2023-12-20T13:08:36;4.05;;;1.30;;
28926;SDS011;16038;47.692;9.400;2023-12-20T13:11:01;2.40;;;1.02;;
28926;SDS011;16038;47.692;9.400;2023-12-20T13:13:29;1.75;;;1.20;;
28926;SDS011;16038;47.692;9.400;2023-12-20T13:15:55;3.58;;;1.30;;
28926;SDS011;16038;47.692;9.400;2023-12-20T13:18:21;2.97;;;1.20;;
28926;SDS011;16038;47.692;9.400;2023-12-20T13:20:47;1.83;;;1.30;;
28926;SDS011;16038;47.692;9.400;2023-12-20T13:23:13;2.30;;;1.45;;
28926;SDS011;16038;47.692;9.400;2023-12-20T13:25:39;1.27;;;1.02;;
28926;SDS011;16038;47.692;9.400;2023-12-20T13:28:05;5.15;;;2.70;;
28926;SDS011;16038;47.692;9.400;2023-12-20T13:30:30;1.67;;;1.30;;
28926;SDS011;16038;47.692;9.400;2023-12-20T13:32:56;1.88;;;1.10;;
28926;SDS011;16038;47.692;9.400;2023-12-20T13:35:21;11.05;;;1.50;;
28926;SDS011;16038;47.692;9.400;2023-12-20T13:37:46;3.35;;;1.10;;
28926;SDS011;16038;47.692;9.400;2023-12-20T13:40:12;3.08;;;1.50;;
28926;SDS011;16038;47.692;9.400;2023-12-20T13:42:38;1.88;;;1.25;;
28926;SDS011;16038;47.692;9.400;2023-12-20T13:45:04;2.03;;;1.40;;
28926;SDS011;16038;47.692;9.400;2023-12-20T13:47:30;2.20;;;1.50;;
28926;SDS011;16038;47.692;9.400;2023-12-20T13:49:56;3.50;;;1.70;;
28926;SDS011;16038;47.692;9.400;2023-12-20T13:52:21;2.72;;;1.80;;
28926;SDS011;16038;47.692;9.400;2023-12-20T13:54:47;3.58;;;1.67;;
28926;SDS011;16038;47.692;9.400;2023-12-20T13:57:12;2.00;;;1.30;;
28926;SDS011;16038;47.692;9.400;2023-12-20T13:59:38;4.00;;;1.80;;
28926;SDS011;16038;47.692;9.400;2023-12-20T14:02:03;3.28;;;2.05;;
28926;SDS011;16038;47.692;9.400;2023-12-20T14:04:29;4.85;;;2.55;;
28926;SDS011;16038;47.692;9.400;2023-12-20T14:06:56;1.65;;;1.23;;
28926;SDS011;16038;47.692;9.400;2023-12-20T14:09:21;3.70;;;1.33;;
28926;SDS011;16038;47.692;9.400;2023-12-20T14:11:47;2.30;;;1.30;;
28926;SDS011;16038;47.692;9.400;2023-12-20T14:14:12;4.00;;;1.60;;
28926;SDS011;16038;47.692;9.400;2023-12-20T14:16:37;1.75;;;1.30;;
28926;SDS011;16038;47.692;9.400;2023-12-20T14:19:03;3.70;;;1.60;;
28926;SDS011;16038;47.692;9.400;2023-12-20T14:21:29;3.05;;;1.30;;
28926;SDS011;16038;47.692;9.400;2023-12-20T14:23:54;4.78;;;1.70;;
28926;SDS011;16038;47.692;9.400;2023-12-20T14:26:20;2.85;;;1.70;;
28926;SDS011;16038;47.692;9.400;2023-12-20T14:28:45;3.97;;;1.90;;
28926;SDS011;16038;47.692;9.400;2023-12-20T14:31:10;2.50;;;1.90;;
28926;SDS011;16038;47.692;9.400;2023-12-20T14:33:37;3.30;;;2.58;;
28926;SDS011;16038;47.692;9.400;2023-12-20T14:36:04;3.40;;;2.20;;
28926;SDS011;16038;47.692;9.400;2023-12-20T14:38:33;3.70;;;2.10;;
28926;SDS011;16038;47.692;9.400;2023-12-20T14:40:58;6.13;;;2.13;;
28926;SDS011;16038;47.692;9.400;2023-12-20T14:43:24;4.20;;;2.00;;
28926;SDS011;16038;47.692;9.400;2023-12-20T14:45:51;4.30;;;1.80;;
28926;SDS011;16038;47.692;9.400;2023-12-20T14:48:17;4.40;;;2.60;;
28926;SDS011;16038;47.692;9.400;2023-12-20T14:50:43;4.82;;;2.25;;